METAR Data
IDs: Format: Raw Decoded Include TAF

Data at: 0203 UTC 01 Mar 2021

KIKK 010155Z AUTO 30013G19KT 10SM CLR 03/01 A2990 RMK AO2 T00260005 TSNO